Brawley, California
Current Conditions -  °F | °C
As of 6:53 AM on Saturday 20 Dec 2014 (Local Time) from KIPL Reporting Station
Clear Clear  
Wind Chill: 39°   Ceiling: Unl
Heat Index: 43°   Visibility: 10mi
Dew Point: 38°   Wind: 7mph
Humidity: 82%   Direction: 270°W
Pressure: 30.15"   Gusts: NA
Location:  32.98°N, 115.53°W
Report Text: KIPL 201453Z AUTO 27006KT 10SM CLR 06/03 A3015 RMK AO2 SLP207 T00610033 53013
Loading
Personal Weather Stations






























Interactive Weather Map New forecast layout! Learn more

10-Day Weather Forecast

Advertisements
Track Severe Weather on mobile